createdAt,value
2022-10-17T00:02:25.928Z,10.69
2022-10-17T00:04:52.814Z,10.70
2022-10-17T00:07:19.656Z,10.64
2022-10-17T00:09:46.538Z,10.63
2022-10-17T00:12:13.545Z,10.66
2022-10-17T00:14:40.385Z,10.64
2022-10-17T00:17:07.238Z,10.70
2022-10-17T00:19:34.074Z,10.74
2022-10-17T00:22:01.028Z,10.76
2022-10-17T00:24:27.964Z,10.75
2022-10-17T00:26:54.717Z,10.72
2022-10-17T00:29:21.809Z,10.68
2022-10-17T00:31:48.759Z,10.68
2022-10-17T00:34:15.746Z,10.65
2022-10-17T00:36:42.547Z,10.63
2022-10-17T00:39:09.587Z,10.58
2022-10-17T00:41:36.490Z,10.64
2022-10-17T00:44:27.801Z,10.65
2022-10-17T00:46:54.705Z,10.64
2022-10-17T00:49:23.933Z,10.63
2022-10-17T00:51:54.775Z,10.65
2022-10-17T00:54:24.570Z,10.64
2022-10-17T00:56:52.295Z,10.60
2022-10-17T00:59:22.466Z,10.61
2022-10-17T01:02:00.271Z,10.52
2022-10-17T01:04:27.309Z,10.52
2022-10-17T01:06:54.256Z,10.52
2022-10-17T01:09:21.200Z,10.51
2022-10-17T01:12:16.824Z,10.48
2022-10-17T01:14:55.030Z,10.48
2022-10-17T01:17:30.882Z,10.43
2022-10-17T01:20:34.946Z,10.34
2022-10-17T01:23:41.622Z,10.30
2022-10-17T01:26:28.085Z,10.29
2022-10-17T01:29:13.258Z,10.27
2022-10-17T01:31:58.688Z,10.26
2022-10-17T01:34:31.206Z,10.25
2022-10-17T01:37:00.970Z,10.22
2022-10-17T01:39:47.028Z,10.27
2022-10-17T01:42:37.862Z,10.29
2022-10-17T01:45:11.870Z,10.29
2022-10-17T01:47:41.289Z,10.27
2022-10-17T01:50:25.002Z,10.27
2022-10-17T01:52:57.282Z,10.29
2022-10-17T01:55:30.932Z,10.33
2022-10-17T01:58:07.400Z,10.38
2022-10-17T02:00:35.915Z,10.41
2022-10-17T02:03:07.606Z,10.48
2022-10-17T02:05:39.601Z,10.49
2022-10-17T02:08:07.573Z,10.55
2022-10-17T02:10:52.178Z,10.58
2022-10-17T02:13:37.608Z,10.58
2022-10-17T02:16:29.538Z,10.50
2022-10-17T02:19:26.486Z,10.49
2022-10-17T02:22:18.325Z,10.46
2022-10-17T02:25:15.008Z,10.41
2022-10-17T02:27:58.284Z,10.38
2022-10-17T02:30:55.284Z,10.45
2022-10-17T02:33:29.821Z,10.42
2022-10-17T02:36:02.029Z,10.46
2022-10-17T02:38:30.971Z,10.49
2022-10-17T02:40:58.236Z,10.52
2022-10-17T02:43:25.675Z,10.48
2022-10-17T02:45:54.209Z,10.44
2022-10-17T02:48:38.826Z,10.52
2022-10-17T02:51:21.651Z,10.54
2022-10-17T02:54:09.848Z,10.56
2022-10-17T02:56:50.809Z,10.52
2022-10-17T02:59:22.182Z,10.52
2022-10-17T03:01:51.821Z,10.51
2022-10-17T03:04:19.575Z,10.47
2022-10-17T03:06:47.697Z,10.41
2022-10-17T03:09:15.106Z,10.32
2022-10-17T03:11:42.043Z,10.25
2022-10-17T03:14:09.038Z,10.21
2022-10-17T03:16:35.994Z,10.21
2022-10-17T03:19:03.492Z,10.18
2022-10-17T03:21:30.413Z,10.02
2022-10-17T03:23:57.487Z,10.12
2022-10-17T03:26:24.362Z,10.07
2022-10-17T03:28:53.689Z,9.90
2022-10-17T03:31:22.194Z,10.04
2022-10-17T03:33:49.260Z,10.10
2022-10-17T03:36:18.920Z,10.14
2022-10-17T03:38:46.636Z,10.14
2022-10-17T03:41:13.729Z,10.14
2022-10-17T03:43:40.634Z,10.13
2022-10-17T03:46:07.859Z,10.13
2022-10-17T03:48:34.836Z,10.15
2022-10-17T03:51:06.330Z,10.19
2022-10-17T03:53:33.725Z,10.15
2022-10-17T03:56:18.753Z,10.14
2022-10-17T03:58:45.899Z,10.06
2022-10-17T04:01:15.613Z,10.05
2022-10-17T04:03:43.480Z,10.02
2022-10-17T04:06:12.931Z,9.99
2022-10-17T04:08:40.074Z,9.92
2022-10-17T04:11:08.572Z,9.94
2022-10-17T04:13:35.971Z,10.03
2022-10-17T04:16:08.894Z,10.08
2022-10-17T04:18:35.743Z,10.12
2022-10-17T04:21:03.672Z,10.16
2022-10-17T04:23:31.075Z,10.22
2022-10-17T04:25:59.144Z,10.32
2022-10-17T04:28:27.975Z,10.39
2022-10-17T04:31:06.534Z,10.43
2022-10-17T04:33:34.455Z,10.45
2022-10-17T04:36:07.035Z,10.47
2022-10-17T04:38:34.507Z,10.34
2022-10-17T04:41:03.600Z,10.26
2022-10-17T04:43:31.459Z,10.18
2022-10-17T04:45:59.789Z,10.10
2022-10-17T04:48:27.093Z,10.07
2022-10-17T04:50:55.676Z,9.99
2022-10-17T04:53:23.668Z,9.90
2022-10-17T04:55:50.843Z,9.93
2022-10-17T04:58:17.832Z,9.93
2022-10-17T05:00:45.073Z,9.98
2022-10-17T05:03:12.240Z,9.91
2022-10-17T05:05:40.355Z,9.86
2022-10-17T05:08:09.621Z,9.81
2022-10-17T05:10:38.663Z,9.77
2022-10-17T05:13:06.208Z,9.78
2022-10-17T05:15:33.717Z,9.75
2022-10-17T05:18:00.874Z,9.68
2022-10-17T05:20:28.015Z,9.68
2022-10-17T05:22:55.117Z,9.72
2022-10-17T05:25:22.473Z,9.69
2022-10-17T05:27:49.366Z,9.68
2022-10-17T05:30:16.219Z,9.66
2022-10-17T05:32:43.154Z,9.62
2022-10-17T05:35:09.992Z,9.66
2022-10-17T05:37:36.996Z,9.70
2022-10-17T05:40:04.497Z,9.68
2022-10-17T05:42:31.986Z,9.69
2022-10-17T05:44:59.204Z,9.70
2022-10-17T05:47:26.156Z,9.73
2022-10-17T05:49:53.059Z,9.72
2022-10-17T05:52:19.946Z,9.66
2022-10-17T05:54:46.894Z,9.60
2022-10-17T05:57:13.788Z,9.59
2022-10-17T05:59:40.628Z,9.58
2022-10-17T06:02:07.607Z,9.58
2022-10-17T06:04:34.409Z,9.57
2022-10-17T06:07:01.300Z,9.63
2022-10-17T06:09:28.706Z,9.73
2022-10-17T06:11:55.596Z,9.76
2022-10-17T06:14:22.699Z,9.74
2022-10-17T06:16:49.496Z,9.73
2022-10-17T06:19:16.591Z,9.73
2022-10-17T06:21:43.586Z,9.71
2022-10-17T06:24:10.374Z,9.70
2022-10-17T06:26:37.241Z,9.64
2022-10-17T06:29:04.422Z,9.52
2022-10-17T06:31:31.269Z,9.55
2022-10-17T06:33:58.099Z,9.60
2022-10-17T06:36:25.208Z,9.52
2022-10-17T06:38:52.094Z,9.66
2022-10-17T06:41:21.958Z,9.68
2022-10-17T06:43:49.100Z,9.61
2022-10-17T06:46:17.853Z,9.63
2022-10-17T06:48:45.098Z,9.60
2022-10-17T06:51:12.762Z,9.54
2022-10-17T06:53:40.682Z,9.52
2022-10-17T06:56:09.571Z,9.50
2022-10-17T06:58:39.386Z,9.47
2022-10-17T07:01:10.986Z,9.45
2022-10-17T07:03:38.190Z,9.40
2022-10-17T07:06:05.494Z,9.44
2022-10-17T07:08:32.487Z,9.38
2022-10-17T07:10:59.592Z,9.33
2022-10-17T07:13:26.757Z,9.29
2022-10-17T07:18:25.397Z,9.38
2022-10-17T07:20:55.719Z,9.49
2022-10-17T07:23:23.333Z,9.59
2022-10-17T07:25:50.415Z,9.64
2022-10-17T07:28:17.567Z,9.66
2022-10-17T07:30:44.756Z,9.72
2022-10-17T07:33:11.662Z,9.73
2022-10-17T07:35:41.114Z,9.78
2022-10-17T07:38:08.582Z,9.87
2022-10-17T07:40:35.765Z,9.99
2022-10-17T07:43:02.927Z,10.29
2022-10-17T07:45:29.875Z,10.63
2022-10-17T07:47:58.908Z,10.86
2022-10-17T07:50:26.041Z,11.07
2022-10-17T07:52:53.003Z,11.18
2022-10-17T07:55:19.904Z,11.18
2022-10-17T07:57:46.909Z,11.14
2022-10-17T08:00:13.998Z,11.09
2022-10-17T08:02:40.884Z,10.93
2022-10-17T08:05:07.998Z,11.07
2022-10-17T08:07:35.199Z,11.36
2022-10-17T08:10:02.159Z,11.45
2022-10-17T08:12:32.591Z,11.37
2022-10-17T08:14:59.960Z,11.22
2022-10-17T08:17:27.061Z,11.13
2022-10-17T08:19:53.963Z,11.00
2022-10-17T08:22:21.013Z,10.93
2022-10-17T08:24:48.011Z,10.83
2022-10-17T08:27:14.798Z,11.01
2022-10-17T08:29:41.734Z,11.17
2022-10-17T08:32:10.346Z,11.53
2022-10-17T08:34:37.417Z,11.93
2022-10-17T08:37:04.399Z,12.32
2022-10-17T08:39:31.407Z,12.72
2022-10-17T08:42:16.784Z,12.93
2022-10-17T08:45:10.148Z,13.21
2022-10-17T08:47:41.139Z,13.28
2022-10-17T08:50:32.558Z,13.47
2022-10-17T08:53:16.607Z,13.63
2022-10-17T08:55:47.491Z,13.79
2022-10-17T08:58:15.565Z,13.93
2022-10-17T09:01:11.942Z,14.17
2022-10-17T09:04:00.859Z,14.32
2022-10-17T09:06:37.736Z,14.47
2022-10-17T09:09:30.809Z,14.56
2022-10-17T09:12:09.005Z,14.69
2022-10-17T09:15:04.041Z,14.88
2022-10-17T09:17:52.871Z,14.98
2022-10-17T09:20:21.304Z,15.14
2022-10-17T09:23:03.062Z,15.10
2022-10-17T09:25:43.961Z,15.11
2022-10-17T09:28:10.911Z,15.17
2022-10-17T09:30:45.638Z,15.21
2022-10-17T09:33:35.136Z,15.19
2022-10-17T09:36:24.933Z,15.13
2022-10-17T09:39:00.486Z,14.98
2022-10-17T09:41:46.551Z,14.96
2022-10-17T09:44:20.439Z,15.09
2022-10-17T09:47:19.642Z,14.99
2022-10-17T09:49:48.664Z,15.04
2022-10-17T09:52:39.640Z,15.09
2022-10-17T09:55:16.170Z,15.14
2022-10-17T09:58:00.712Z,15.05
2022-10-17T10:00:31.591Z,14.99
2022-10-17T10:03:15.856Z,14.66
2022-10-17T10:05:57.706Z,14.51
2022-10-17T10:08:29.157Z,14.60
2022-10-17T10:11:05.827Z,14.76
2022-10-17T10:13:34.470Z,14.94
2022-10-17T10:16:32.367Z,15.04
2022-10-17T10:18:59.778Z,15.37
2022-10-17T10:21:28.212Z,15.42
2022-10-17T10:24:15.134Z,15.54
2022-10-17T10:26:44.382Z,15.73
2022-10-17T10:29:23.503Z,15.59
2022-10-17T10:31:51.619Z,15.77
2022-10-17T10:34:21.292Z,15.81
2022-10-17T10:37:02.456Z,15.98
2022-10-17T10:39:43.661Z,16.30
2022-10-17T10:42:27.085Z,16.52
2022-10-17T10:44:59.871Z,16.73
2022-10-17T10:47:31.153Z,16.61
2022-10-17T10:50:33.119Z,16.59
2022-10-17T10:53:02.638Z,16.44
2022-10-17T10:55:55.131Z,16.48
2022-10-17T10:58:40.226Z,16.58
2022-10-17T11:01:38.672Z,16.67
2022-10-17T11:04:33.374Z,16.50
2022-10-17T11:07:20.660Z,16.36
2022-10-17T11:10:28.701Z,16.20
2022-10-17T11:13:06.861Z,15.94
2022-10-17T11:15:53.526Z,15.68
2022-10-17T11:18:39.004Z,15.37
2022-10-17T11:21:29.165Z,15.09
2022-10-17T11:24:24.988Z,14.77
2022-10-17T11:27:03.821Z,14.68
2022-10-17T11:29:38.374Z,14.83
2022-10-17T11:32:36.781Z,15.05
2022-10-17T11:35:26.788Z,15.23
2022-10-17T11:38:06.001Z,15.47
2022-10-17T11:40:36.940Z,15.61
2022-10-17T11:43:12.027Z,15.74
2022-10-17T11:45:52.387Z,15.80
2022-10-17T11:48:37.823Z,15.72
2022-10-17T11:54:44.982Z,15.71
2022-10-17T11:57:35.111Z,15.81
2022-10-17T12:00:20.300Z,15.95
2022-10-17T12:03:07.455Z,16.04
2022-10-17T12:05:43.636Z,16.11
2022-10-17T12:08:31.538Z,16.05
2022-10-17T12:11:07.151Z,16.17
2022-10-17T12:13:34.091Z,16.25
2022-10-17T12:16:21.884Z,16.33
2022-10-17T12:18:52.259Z,16.54
2022-10-17T12:21:19.121Z,16.74
2022-10-17T12:23:53.576Z,16.93
2022-10-17T12:26:29.026Z,17.13
2022-10-17T12:28:57.457Z,17.25
2022-10-17T12:31:33.340Z,17.51
2022-10-17T12:34:02.705Z,17.65
2022-10-17T12:36:29.589Z,17.79
2022-10-17T12:39:02.024Z,17.70
2022-10-17T12:41:41.048Z,17.45
2022-10-17T12:44:13.857Z,17.27
2022-10-17T12:46:46.561Z,17.23
2022-10-17T12:49:42.786Z,17.15
2022-10-17T12:52:23.859Z,17.11
2022-10-17T12:55:12.203Z,16.99
2022-10-17T12:58:03.473Z,16.83
2022-10-17T13:00:37.634Z,16.87
2022-10-17T13:03:18.822Z,16.69
2022-10-17T13:05:52.730Z,16.55
2022-10-17T13:08:39.241Z,16.37
2022-10-17T13:11:07.920Z,16.49
2022-10-17T13:13:49.186Z,16.63
2022-10-17T13:16:29.454Z,16.85
2022-10-17T13:18:57.218Z,17.05
2022-10-17T13:21:24.416Z,17.30
2022-10-17T13:23:53.468Z,17.35
2022-10-17T13:26:28.650Z,17.43
2022-10-17T13:29:13.465Z,17.48
2022-10-17T13:31:42.613Z,17.29
2022-10-17T13:34:21.754Z,17.07
2022-10-17T13:36:52.638Z,17.15
2022-10-17T13:39:38.374Z,17.33
2022-10-17T13:42:32.231Z,17.52
2022-10-17T13:44:59.762Z,17.63
2022-10-17T13:47:33.923Z,17.41
2022-10-17T13:50:01.373Z,17.31
2022-10-17T13:52:30.520Z,17.31
2022-10-17T13:55:17.582Z,17.33
2022-10-17T13:57:44.652Z,17.40
2022-10-17T14:00:23.219Z,17.53
2022-10-17T14:02:50.203Z,17.81
2022-10-17T14:05:20.991Z,18.01
2022-10-17T14:10:43.554Z,18.37
2022-10-17T14:13:23.048Z,18.30
2022-10-17T14:15:50.898Z,18.19
2022-10-17T14:18:36.456Z,18.12
2022-10-17T14:21:34.420Z,18.09
2022-10-17T14:24:12.148Z,18.17
2022-10-17T14:26:48.264Z,18.37
2022-10-17T14:29:31.797Z,18.47
2022-10-17T14:32:06.264Z,18.66
2022-10-17T14:34:39.568Z,18.63
2022-10-17T14:37:25.756Z,18.44
2022-10-17T14:39:55.300Z,18.19
2022-10-17T14:42:23.788Z,18.07
2022-10-17T14:44:52.022Z,17.91
2022-10-17T14:47:43.339Z,17.77
2022-10-17T14:50:10.894Z,17.57
2022-10-17T14:52:39.221Z,17.49
2022-10-17T14:55:26.796Z,17.35
2022-10-17T14:57:53.725Z,17.28
2022-10-17T15:00:22.280Z,17.19
2022-10-17T15:02:50.363Z,17.05
2022-10-17T15:05:17.758Z,16.91
2022-10-17T15:07:44.611Z,16.83
2022-10-17T15:10:29.824Z,16.72
2022-10-17T15:12:59.947Z,16.74
2022-10-17T15:15:38.662Z,16.77
2022-10-17T15:18:05.964Z,16.76
2022-10-17T15:20:33.987Z,16.75
2022-10-17T15:23:02.480Z,16.69
2022-10-17T15:25:31.314Z,16.61
2022-10-17T15:27:59.025Z,16.53
2022-10-17T15:30:29.402Z,16.51
2022-10-17T15:32:56.606Z,16.47
2022-10-17T15:35:23.630Z,16.39
2022-10-17T15:37:51.458Z,16.47
2022-10-17T15:40:25.358Z,16.45
2022-10-17T15:42:52.475Z,16.32
2022-10-17T15:45:22.435Z,16.17
2022-10-17T15:48:17.274Z,16.00
2022-10-17T15:50:44.238Z,15.96
2022-10-17T15:53:14.812Z,15.89
2022-10-17T15:55:41.851Z,15.85
2022-10-17T15:58:16.278Z,15.84
2022-10-17T16:00:43.759Z,15.88
2022-10-17T16:03:10.670Z,15.93
2022-10-17T16:05:37.629Z,15.94
2022-10-17T16:08:04.919Z,15.90
2022-10-17T16:10:32.180Z,15.83
2022-10-17T16:12:59.021Z,15.71
2022-10-17T16:15:28.212Z,15.54
2022-10-17T16:17:57.094Z,15.33
2022-10-17T16:20:25.885Z,15.13
2022-10-17T16:22:59.870Z,15.01
2022-10-17T16:25:30.080Z,14.90
2022-10-17T16:27:58.817Z,14.83
2022-10-17T16:30:27.971Z,14.75
2022-10-17T16:32:55.877Z,14.69
2022-10-17T16:35:25.283Z,14.65
2022-10-17T16:37:52.274Z,14.56
2022-10-17T16:40:19.489Z,14.57
2022-10-17T16:42:46.675Z,14.51
2022-10-17T16:45:22.155Z,14.43
2022-10-17T16:47:50.730Z,14.34
2022-10-17T16:50:18.074Z,14.21
2022-10-17T16:52:45.059Z,14.13
2022-10-17T16:55:11.960Z,14.01
2022-10-17T16:57:38.796Z,13.86
2022-10-17T17:00:07.433Z,13.72
2022-10-17T17:02:34.494Z,13.57
2022-10-17T17:05:01.671Z,13.44
2022-10-17T17:07:30.189Z,13.27
2022-10-17T17:09:57.455Z,13.15
2022-10-17T17:12:24.305Z,12.94
2022-10-17T17:14:51.345Z,12.82
2022-10-17T17:17:30.421Z,12.62
2022-10-17T17:20:06.913Z,12.34
2022-10-17T17:22:34.520Z,12.11
2022-10-17T17:25:01.294Z,11.92
2022-10-17T17:27:29.530Z,11.73
2022-10-17T17:29:56.735Z,11.66
2022-10-17T17:32:23.641Z,11.58
2022-10-17T17:34:50.563Z,11.49
2022-10-17T17:37:17.406Z,11.37
2022-10-17T17:39:44.552Z,11.23
2022-10-17T17:42:11.501Z,11.12
2022-10-17T17:44:38.339Z,11.03
2022-10-17T17:47:05.400Z,10.94
2022-10-17T17:49:32.381Z,10.82
2022-10-17T17:51:59.273Z,10.68
2022-10-17T17:54:26.180Z,10.54
2022-10-17T17:56:53.020Z,10.43
2022-10-17T17:59:19.970Z,10.29
2022-10-17T18:01:46.942Z,10.19
2022-10-17T18:04:13.954Z,10.10
2022-10-17T18:06:40.850Z,10.01
2022-10-17T18:09:09.133Z,9.89
2022-10-17T18:11:37.094Z,9.78
2022-10-17T18:14:06.658Z,9.70
2022-10-17T18:16:35.897Z,9.59
2022-10-17T18:19:06.760Z,9.49
2022-10-17T18:21:34.259Z,9.45
2022-10-17T18:24:01.106Z,9.40
2022-10-17T18:26:28.809Z,9.37
2022-10-17T18:28:55.857Z,9.27
2022-10-17T18:31:28.445Z,9.17
2022-10-17T18:33:57.321Z,9.08
2022-10-17T18:36:26.322Z,8.97
2022-10-17T18:38:54.290Z,8.92
2022-10-17T18:41:24.089Z,8.85
2022-10-17T18:43:52.469Z,8.88
2022-10-17T18:46:22.237Z,8.85
2022-10-17T18:48:50.513Z,8.76
2022-10-17T18:51:20.312Z,8.61
2022-10-17T18:53:50.587Z,8.52
2022-10-17T18:56:19.283Z,8.40
2022-10-17T18:58:46.689Z,8.29
2022-10-17T19:01:21.748Z,8.23
2022-10-17T19:03:51.634Z,8.08
2022-10-17T19:06:21.539Z,8.00
2022-10-17T19:08:49.150Z,7.93
2022-10-17T19:11:19.025Z,7.85
2022-10-17T19:13:47.497Z,7.80
2022-10-17T19:16:20.282Z,7.73
2022-10-17T19:18:55.567Z,7.62
2022-10-17T19:21:22.728Z,7.60
2022-10-17T19:23:54.990Z,7.53
2022-10-17T19:26:23.160Z,7.55
2022-10-17T19:28:53.587Z,7.50
2022-10-17T19:31:26.460Z,7.44
2022-10-17T19:33:55.414Z,7.33
2022-10-17T19:36:27.511Z,7.19
2022-10-17T19:38:58.363Z,7.09
2022-10-17T19:41:26.028Z,7.10
2022-10-17T19:43:52.978Z,7.17
2022-10-17T19:46:23.970Z,7.20
2022-10-17T19:48:51.632Z,7.12
2022-10-17T19:51:20.101Z,7.00
2022-10-17T19:53:47.000Z,6.92
2022-10-17T19:56:14.354Z,6.79
2022-10-17T19:58:45.544Z,6.77
2022-10-17T20:01:18.149Z,6.72
2022-10-17T20:03:45.735Z,6.65
2022-10-17T20:06:12.684Z,6.61
2022-10-17T20:08:40.447Z,6.56
2022-10-17T20:11:11.067Z,6.53
2022-10-17T20:13:38.786Z,6.55
2022-10-17T20:16:07.835Z,6.64
2022-10-17T20:18:35.494Z,6.66
2022-10-17T20:21:05.255Z,6.77
2022-10-17T20:23:32.251Z,6.91
2022-10-17T20:26:08.042Z,7.10
2022-10-17T20:28:46.404Z,7.08
2022-10-17T20:31:13.924Z,6.98
2022-10-17T20:33:41.740Z,6.95
2022-10-17T20:36:10.580Z,6.95
2022-10-17T20:38:37.985Z,6.90
2022-10-17T20:41:08.718Z,6.82
2022-10-17T20:43:37.200Z,6.72
2022-10-17T20:46:16.964Z,6.65
2022-10-17T20:48:54.341Z,6.58
2022-10-17T20:51:21.685Z,6.51
2022-10-17T20:53:48.979Z,6.34
2022-10-17T20:56:27.660Z,6.37
2022-10-17T20:58:57.373Z,6.50
2022-10-17T21:01:25.483Z,6.56
2022-10-17T21:03:52.736Z,6.50
2022-10-17T21:06:20.258Z,6.46
2022-10-17T21:08:47.733Z,6.42
2022-10-17T21:11:20.034Z,6.34
2022-10-17T21:13:48.204Z,6.36
2022-10-17T21:16:18.069Z,6.40
2022-10-17T21:18:46.221Z,6.43
2022-10-17T21:21:28.253Z,6.61
2022-10-17T21:23:58.208Z,6.67
2022-10-17T21:26:25.062Z,6.76
2022-10-17T21:28:52.210Z,6.82
2022-10-17T21:31:27.389Z,6.87
2022-10-17T21:34:00.217Z,6.82
2022-10-17T21:36:28.456Z,6.67
2022-10-17T21:38:57.129Z,6.55
2022-10-17T21:41:28.997Z,6.38
2022-10-17T21:44:01.720Z,6.31
2022-10-17T21:46:28.913Z,6.32
2022-10-17T21:48:55.818Z,6.31
2022-10-17T21:51:24.517Z,6.38
2022-10-17T21:53:52.779Z,6.34
2022-10-17T21:56:22.382Z,6.36
2022-10-17T21:58:50.510Z,6.53
2022-10-17T22:01:25.490Z,6.65
2022-10-17T22:03:55.364Z,6.71
2022-10-17T22:06:39.295Z,6.80
2022-10-17T22:09:20.187Z,6.83
2022-10-17T22:11:50.288Z,6.88
2022-10-17T22:14:19.640Z,6.86
2022-10-17T22:16:47.774Z,6.84
2022-10-17T22:19:18.874Z,6.84
2022-10-17T22:21:45.952Z,6.81
2022-10-17T22:24:15.066Z,6.80
2022-10-17T22:26:43.067Z,6.75
2022-10-17T22:29:10.887Z,6.72
2022-10-17T22:31:38.330Z,6.68
2022-10-17T22:34:06.618Z,6.55
2022-10-17T22:36:34.388Z,6.41
2022-10-17T22:39:01.172Z,6.26
2022-10-17T22:41:28.127Z,6.16
2022-10-17T22:43:55.169Z,6.10
2022-10-17T22:46:22.225Z,6.22
2022-10-17T22:48:49.078Z,6.37
2022-10-17T22:51:16.214Z,6.51
2022-10-17T22:53:43.151Z,6.62
2022-10-17T22:56:12.869Z,6.72
2022-10-17T22:58:40.117Z,6.77
2022-10-17T23:01:08.344Z,6.95
2022-10-17T23:03:36.200Z,7.12
2022-10-17T23:06:02.996Z,7.13
2022-10-17T23:08:30.244Z,7.10
2022-10-17T23:10:57.609Z,7.06
2022-10-17T23:13:24.505Z,6.93
2022-10-17T23:15:55.905Z,7.07
2022-10-17T23:18:23.307Z,7.22
2022-10-17T23:20:50.704Z,7.29
2022-10-17T23:23:18.383Z,7.33
2022-10-17T23:25:45.926Z,7.34
2022-10-17T23:28:13.190Z,7.32
2022-10-17T23:30:40.847Z,7.19
2022-10-17T23:33:08.197Z,7.13
2022-10-17T23:35:36.229Z,7.05
2022-10-17T23:38:03.531Z,7.17
2022-10-17T23:40:30.614Z,7.17
2022-10-17T23:42:57.561Z,7.19
2022-10-17T23:45:24.548Z,7.19
2022-10-17T23:47:51.451Z,7.25
2022-10-17T23:50:18.502Z,7.26
2022-10-17T23:52:45.309Z,7.27
2022-10-17T23:55:12.345Z,7.33
2022-10-17T23:57:39.233Z,7.38
